sensor_id;sensor_type;location;lat;lon;timestamp;temperature;humidity
42339;DHT22;27993;45.392;10.918;2024-03-08T00:00:24;9.90;99.90
42339;DHT22;27993;45.392;10.918;2024-03-08T00:02:54;9.90;99.90
42339;DHT22;27993;45.392;10.918;2024-03-08T00:05:25;9.90;99.90
42339;DHT22;27993;45.392;10.918;2024-03-08T00:07:55;9.80;99.90
42339;DHT22;27993;45.392;10.918;2024-03-08T00:10:26;9.80;99.90
42339;DHT22;27993;45.392;10.918;2024-03-08T00:12:59;9.80;99.90
42339;DHT22;27993;45.392;10.918;2024-03-08T00:15:29;9.70;99.90
42339;DHT22;27993;45.392;10.918;2024-03-08T00:18:02;9.80;99.90
42339;DHT22;27993;45.392;10.918;2024-03-08T00:20:33;9.90;99.90
42339;DHT22;27993;45.392;10.918;2024-03-08T00:23:04;9.80;99.90
42339;DHT22;27993;45.392;10.918;2024-03-08T00:25:34;9.70;99.90
42339;DHT22;27993;45.392;10.918;2024-03-08T00:28:06;9.80;99.90
42339;DHT22;27993;45.392;10.918;2024-03-08T00:30:36;9.70;99.90
42339;DHT22;27993;45.392;10.918;2024-03-08T00:33:08;9.60;99.90
42339;DHT22;27993;45.392;10.918;2024-03-08T00:35:38;9.60;99.90
42339;DHT22;27993;45.392;10.918;2024-03-08T00:38:09;9.50;99.90
42339;DHT22;27993;45.392;10.918;2024-03-08T00:40:40;9.50;99.90
42339;DHT22;27993;45.392;10.918;2024-03-08T00:43:11;9.50;99.90
42339;DHT22;27993;45.392;10.918;2024-03-08T00:45:41;9.50;99.90
42339;DHT22;27993;45.392;10.918;2024-03-08T00:48:15;9.50;99.90
42339;DHT22;27993;45.392;10.918;2024-03-08T00:50:45;9.50;99.90
42339;DHT22;27993;45.392;10.918;2024-03-08T00:53:16;9.50;99.90
42339;DHT22;27993;45.392;10.918;2024-03-08T00:55:47;9.50;99.90
42339;DHT22;27993;45.392;10.918;2024-03-08T00:58:17;9.50;99.90
42339;DHT22;27993;45.392;10.918;2024-03-08T01:00:48;9.60;99.90
42339;DHT22;27993;45.392;10.918;2024-03-08T01:03:19;9.50;99.90
42339;DHT22;27993;45.392;10.918;2024-03-08T01:05:49;9.40;99.90
42339;DHT22;27993;45.392;10.918;2024-03-08T01:08:20;9.40;99.90
42339;DHT22;27993;45.392;10.918;2024-03-08T01:10:51;9.40;99.90
42339;DHT22;27993;45.392;10.918;2024-03-08T01:13:21;9.40;99.90
42339;DHT22;27993;45.392;10.918;2024-03-08T01:15:52;9.50;99.90
42339;DHT22;27993;45.392;10.918;2024-03-08T01:18:22;9.50;99.90
42339;DHT22;27993;45.392;10.918;2024-03-08T01:20:53;9.40;99.90
42339;DHT22;27993;45.392;10.918;2024-03-08T01:23:24;9.40;99.90
42339;DHT22;27993;45.392;10.918;2024-03-08T01:25:55;9.40;99.90
42339;DHT22;27993;45.392;10.918;2024-03-08T01:28:27;9.40;99.90
42339;DHT22;27993;45.392;10.918;2024-03-08T01:30:58;9.40;99.90
42339;DHT22;27993;45.392;10.918;2024-03-08T01:33:29;9.40;99.90
42339;DHT22;27993;45.392;10.918;2024-03-08T01:36:00;9.30;99.90
42339;DHT22;27993;45.392;10.918;2024-03-08T01:38:31;9.40;99.90
42339;DHT22;27993;45.392;10.918;2024-03-08T01:41:02;9.40;99.90
42339;DHT22;27993;45.392;10.918;2024-03-08T01:43:32;9.50;99.90
42339;DHT22;27993;45.392;10.918;2024-03-08T01:46:03;9.50;99.90
42339;DHT22;27993;45.392;10.918;2024-03-08T01:48:35;9.60;99.90
42339;DHT22;27993;45.392;10.918;2024-03-08T01:51:07;9.50;99.90
42339;DHT22;27993;45.392;10.918;2024-03-08T01:53:38;9.50;99.90
42339;DHT22;27993;45.392;10.918;2024-03-08T01:56:09;9.60;99.90
42339;DHT22;27993;45.392;10.918;2024-03-08T01:58:41;9.50;99.90
42339;DHT22;27993;45.392;10.918;2024-03-08T02:01:15;9.50;99.90
42339;DHT22;27993;45.392;10.918;2024-03-08T02:03:46;9.50;99.90
42339;DHT22;27993;45.392;10.918;2024-03-08T02:06:17;9.50;99.90
42339;DHT22;27993;45.392;10.918;2024-03-08T02:08:47;9.50;99.90
42339;DHT22;27993;45.392;10.918;2024-03-08T02:11:19;9.50;99.90
42339;DHT22;27993;45.392;10.918;2024-03-08T02:13:51;9.50;99.90
42339;DHT22;27993;45.392;10.918;2024-03-08T02:16:22;9.50;99.90
42339;DHT22;27993;45.392;10.918;2024-03-08T02:18:53;9.40;99.90
42339;DHT22;27993;45.392;10.918;2024-03-08T02:21:24;9.40;99.90
42339;DHT22;27993;45.392;10.918;2024-03-08T02:23:55;9.40;99.90
42339;DHT22;27993;45.392;10.918;2024-03-08T02:26:25;9.40;99.90
42339;DHT22;27993;45.392;10.918;2024-03-08T02:28:56;9.40;99.90
42339;DHT22;27993;45.392;10.918;2024-03-08T02:31:26;9.30;99.90
42339;DHT22;27993;45.392;10.918;2024-03-08T02:33:57;9.30;99.90
42339;DHT22;27993;45.392;10.918;2024-03-08T02:36:28;9.20;99.90
42339;DHT22;27993;45.392;10.918;2024-03-08T02:38:58;9.20;99.90
42339;DHT22;27993;45.392;10.918;2024-03-08T02:41:29;9.20;99.90
42339;DHT22;27993;45.392;10.918;2024-03-08T02:43:59;9.10;99.90
42339;DHT22;27993;45.392;10.918;2024-03-08T02:46:30;9.10;99.90
42339;DHT22;27993;45.392;10.918;2024-03-08T02:49:01;9.10;99.90
42339;DHT22;27993;45.392;10.918;2024-03-08T02:51:31;9.00;99.90
42339;DHT22;27993;45.392;10.918;2024-03-08T02:54:05;8.90;99.90
42339;DHT22;27993;45.392;10.918;2024-03-08T02:56:36;8.90;99.90
42339;DHT22;27993;45.392;10.918;2024-03-08T02:59:06;8.90;99.90
42339;DHT22;27993;45.392;10.918;2024-03-08T03:01:37;8.90;99.90
42339;DHT22;27993;45.392;10.918;2024-03-08T03:04:09;8.90;99.90
42339;DHT22;27993;45.392;10.918;2024-03-08T03:06:39;8.90;99.90
42339;DHT22;27993;45.392;10.918;2024-03-08T03:09:10;8.90;99.90
42339;DHT22;27993;45.392;10.918;2024-03-08T03:11:44;9.00;99.90
42339;DHT22;27993;45.392;10.918;2024-03-08T03:14:15;8.90;99.90
42339;DHT22;27993;45.392;10.918;2024-03-08T03:16:46;8.90;99.90
42339;DHT22;27993;45.392;10.918;2024-03-08T03:19:17;8.80;99.90
42339;DHT22;27993;45.392;10.918;2024-03-08T03:21:48;8.80;99.90
42339;DHT22;27993;45.392;10.918;2024-03-08T03:24:18;8.70;99.90
42339;DHT22;27993;45.392;10.918;2024-03-08T03:26:49;8.80;99.90
42339;DHT22;27993;45.392;10.918;2024-03-08T03:29:20;8.80;99.90
42339;DHT22;27993;45.392;10.918;2024-03-08T03:31:50;8.80;99.90
42339;DHT22;27993;45.392;10.918;2024-03-08T03:34:21;8.80;99.90
42339;DHT22;27993;45.392;10.918;2024-03-08T03:36:53;8.80;99.90
42339;DHT22;27993;45.392;10.918;2024-03-08T03:39:25;8.80;99.90
42339;DHT22;27993;45.392;10.918;2024-03-08T03:41:57;8.70;99.90
42339;DHT22;27993;45.392;10.918;2024-03-08T03:44:28;8.70;99.90
42339;DHT22;27993;45.392;10.918;2024-03-08T03:46:59;8.70;99.90
42339;DHT22;27993;45.392;10.918;2024-03-08T03:49:29;8.70;99.90
42339;DHT22;27993;45.392;10.918;2024-03-08T03:52:00;8.70;99.90
42339;DHT22;27993;45.392;10.918;2024-03-08T03:54:30;8.70;99.90
42339;DHT22;27993;45.392;10.918;2024-03-08T03:57:01;8.70;99.90
42339;DHT22;27993;45.392;10.918;2024-03-08T03:59:33;8.60;99.90
42339;DHT22;27993;45.392;10.918;2024-03-08T04:02:03;8.70;99.90
42339;DHT22;27993;45.392;10.918;2024-03-08T04:04:34;8.60;99.90
42339;DHT22;27993;45.392;10.918;2024-03-08T04:07:04;8.60;99.90
42339;DHT22;27993;45.392;10.918;2024-03-08T04:09:35;8.60;99.90
42339;DHT22;27993;45.392;10.918;2024-03-08T04:12:06;8.50;99.90
42339;DHT22;27993;45.392;10.918;2024-03-08T04:14:40;8.60;99.90
42339;DHT22;27993;45.392;10.918;2024-03-08T04:17:11;8.50;99.90
42339;DHT22;27993;45.392;10.918;2024-03-08T04:19:42;8.60;99.90
42339;DHT22;27993;45.392;10.918;2024-03-08T04:22:13;8.60;99.90
42339;DHT22;27993;45.392;10.918;2024-03-08T04:24:44;8.50;99.90
42339;DHT22;27993;45.392;10.918;2024-03-08T04:27:15;8.50;99.90
42339;DHT22;27993;45.392;10.918;2024-03-08T04:29:45;8.60;99.90
42339;DHT22;27993;45.392;10.918;2024-03-08T04:32:17;8.50;99.90
42339;DHT22;27993;45.392;10.918;2024-03-08T04:34:47;8.50;99.90
42339;DHT22;27993;45.392;10.918;2024-03-08T04:37:18;8.60;99.90
42339;DHT22;27993;45.392;10.918;2024-03-08T04:39:52;8.60;99.90
42339;DHT22;27993;45.392;10.918;2024-03-08T04:42:23;8.70;99.90
42339;DHT22;27993;45.392;10.918;2024-03-08T04:44:53;8.60;99.90
42339;DHT22;27993;45.392;10.918;2024-03-08T04:47:24;8.60;99.90
42339;DHT22;27993;45.392;10.918;2024-03-08T04:49:55;8.70;99.90
42339;DHT22;27993;45.392;10.918;2024-03-08T04:52:26;8.60;99.90
42339;DHT22;27993;45.392;10.918;2024-03-08T04:54:58;8.70;99.90
42339;DHT22;27993;45.392;10.918;2024-03-08T04:57:29;8.70;99.90
42339;DHT22;27993;45.392;10.918;2024-03-08T05:00:00;8.70;99.90
42339;DHT22;27993;45.392;10.918;2024-03-08T05:02:30;8.70;99.90
42339;DHT22;27993;45.392;10.918;2024-03-08T05:05:01;8.60;99.90
42339;DHT22;27993;45.392;10.918;2024-03-08T05:07:31;8.60;99.90
42339;DHT22;27993;45.392;10.918;2024-03-08T05:10:03;8.70;99.90
42339;DHT22;27993;45.392;10.918;2024-03-08T05:12:34;8.70;99.90
42339;DHT22;27993;45.392;10.918;2024-03-08T05:15:05;8.70;99.90
42339;DHT22;27993;45.392;10.918;2024-03-08T05:17:37;8.60;99.90
42339;DHT22;27993;45.392;10.918;2024-03-08T05:20:08;8.60;99.90
42339;DHT22;27993;45.392;10.918;2024-03-08T05:22:43;8.70;99.90
42339;DHT22;27993;45.392;10.918;2024-03-08T05:25:13;8.90;99.90
42339;DHT22;27993;45.392;10.918;2024-03-08T05:27:44;8.80;99.90
42339;DHT22;27993;45.392;10.918;2024-03-08T05:30:15;8.80;99.90
42339;DHT22;27993;45.392;10.918;2024-03-08T05:32:45;8.90;99.90
42339;DHT22;27993;45.392;10.918;2024-03-08T05:35:16;8.90;99.90
42339;DHT22;27993;45.392;10.918;2024-03-08T05:37:47;8.90;99.90
42339;DHT22;27993;45.392;10.918;2024-03-08T05:40:18;8.90;99.90
42339;DHT22;27993;45.392;10.918;2024-03-08T05:42:49;8.80;99.90
42339;DHT22;27993;45.392;10.918;2024-03-08T05:45:20;8.90;99.90
42339;DHT22;27993;45.392;10.918;2024-03-08T05:47:51;8.90;99.90
42339;DHT22;27993;45.392;10.918;2024-03-08T05:50:24;8.80;99.90
42339;DHT22;27993;45.392;10.918;2024-03-08T05:52:55;8.70;99.90
42339;DHT22;27993;45.392;10.918;2024-03-08T05:55:26;8.60;99.90
42339;DHT22;27993;45.392;10.918;2024-03-08T05:57:56;8.70;99.90
42339;DHT22;27993;45.392;10.918;2024-03-08T06:00:27;8.60;99.90
42339;DHT22;27993;45.392;10.918;2024-03-08T06:02:58;8.70;99.90
42339;DHT22;27993;45.392;10.918;2024-03-08T06:05:29;8.60;99.90
42339;DHT22;27993;45.392;10.918;2024-03-08T06:07:59;8.60;99.90
42339;DHT22;27993;45.392;10.918;2024-03-08T06:10:30;8.50;99.90
42339;DHT22;27993;45.392;10.918;2024-03-08T06:13:02;8.50;99.90
42339;DHT22;27993;45.392;10.918;2024-03-08T06:15:33;8.40;99.90
42339;DHT22;27993;45.392;10.918;2024-03-08T06:18:05;8.40;99.90
42339;DHT22;27993;45.392;10.918;2024-03-08T06:20:36;8.40;99.90
42339;DHT22;27993;45.392;10.918;2024-03-08T06:23:06;8.50;99.90
42339;DHT22;27993;45.392;10.918;2024-03-08T06:25:37;8.50;99.90
42339;DHT22;27993;45.392;10.918;2024-03-08T06:28:08;8.50;99.90
42339;DHT22;27993;45.392;10.918;2024-03-08T06:30:38;8.50;99.90
42339;DHT22;27993;45.392;10.918;2024-03-08T06:33:09;8.60;99.90
42339;DHT22;27993;45.392;10.918;2024-03-08T06:35:41;8.50;99.90
42339;DHT22;27993;45.392;10.918;2024-03-08T06:38:12;8.50;99.90
42339;DHT22;27993;45.392;10.918;2024-03-08T06:40:42;8.60;99.90
42339;DHT22;27993;45.392;10.918;2024-03-08T06:43:14;8.50;99.90
42339;DHT22;27993;45.392;10.918;2024-03-08T06:45:46;8.50;99.90
42339;DHT22;27993;45.392;10.918;2024-03-08T06:48:18;8.50;99.90
42339;DHT22;27993;45.392;10.918;2024-03-08T06:50:49;8.50;99.90
42339;DHT22;27993;45.392;10.918;2024-03-08T06:53:21;8.50;99.90
42339;DHT22;27993;45.392;10.918;2024-03-08T06:55:52;8.50;99.90
42339;DHT22;27993;45.392;10.918;2024-03-08T06:58:23;8.50;99.90
42339;DHT22;27993;45.392;10.918;2024-03-08T07:00:54;8.40;99.90
42339;DHT22;27993;45.392;10.918;2024-03-08T07:03:28;8.40;99.90
42339;DHT22;27993;45.392;10.918;2024-03-08T07:06:00;8.40;99.90
42339;DHT22;27993;45.392;10.918;2024-03-08T07:08:33;8.40;99.90
42339;DHT22;27993;45.392;10.918;2024-03-08T07:11:03;8.50;99.90
42339;DHT22;27993;45.392;10.918;2024-03-08T07:13:34;8.50;99.90
42339;DHT22;27993;45.392;10.918;2024-03-08T07:16:05;8.40;99.90
42339;DHT22;27993;45.392;10.918;2024-03-08T07:18:36;8.40;99.90
42339;DHT22;27993;45.392;10.918;2024-03-08T07:21:10;8.50;99.90
42339;DHT22;27993;45.392;10.918;2024-03-08T07:23:41;8.30;99.90
42339;DHT22;27993;45.392;10.918;2024-03-08T07:26:24;8.40;99.90
42339;DHT22;27993;45.392;10.918;2024-03-08T07:28:55;8.50;99.90
42339;DHT22;27993;45.392;10.918;2024-03-08T07:31:26;8.30;99.90
42339;DHT22;27993;45.392;10.918;2024-03-08T07:33:56;8.50;99.90
42339;DHT22;27993;45.392;10.918;2024-03-08T07:36:27;8.50;99.90
42339;DHT22;27993;45.392;10.918;2024-03-08T07:38:58;8.50;99.90
42339;DHT22;27993;45.392;10.918;2024-03-08T07:41:28;8.50;99.90
42339;DHT22;27993;45.392;10.918;2024-03-08T07:44:00;8.50;99.90
42339;DHT22;27993;45.392;10.918;2024-03-08T07:46:34;8.40;99.90
42339;DHT22;27993;45.392;10.918;2024-03-08T07:49:04;8.50;99.90
42339;DHT22;27993;45.392;10.918;2024-03-08T07:51:35;8.50;99.90
42339;DHT22;27993;45.392;10.918;2024-03-08T07:54:05;8.50;99.90
42339;DHT22;27993;45.392;10.918;2024-03-08T07:56:37;8.50;99.90
42339;DHT22;27993;45.392;10.918;2024-03-08T07:59:08;8.50;99.90
42339;DHT22;27993;45.392;10.918;2024-03-08T08:01:39;8.50;99.90
42339;DHT22;27993;45.392;10.918;2024-03-08T08:04:10;8.60;99.90
42339;DHT22;27993;45.392;10.918;2024-03-08T08:06:42;8.50;99.90
42339;DHT22;27993;45.392;10.918;2024-03-08T08:09:13;8.50;99.90
42339;DHT22;27993;45.392;10.918;2024-03-08T08:11:52;8.50;99.90
42339;DHT22;27993;45.392;10.918;2024-03-08T08:14:23;8.50;99.90
42339;DHT22;27993;45.392;10.918;2024-03-08T08:16:53;8.50;99.90
42339;DHT22;27993;45.392;10.918;2024-03-08T08:19:26;8.60;99.90
42339;DHT22;27993;45.392;10.918;2024-03-08T08:21:57;8.70;99.90
42339;DHT22;27993;45.392;10.918;2024-03-08T08:24:28;8.80;99.90
42339;DHT22;27993;45.392;10.918;2024-03-08T08:26:59;8.90;99.90
42339;DHT22;27993;45.392;10.918;2024-03-08T08:29:29;9.00;99.90
42339;DHT22;27993;45.392;10.918;2024-03-08T08:32:00;9.30;99.90
42339;DHT22;27993;45.392;10.918;2024-03-08T08:34:31;10.60;99.90
42339;DHT22;27993;45.392;10.918;2024-03-08T08:37:01;10.90;99.90
42339;DHT22;27993;45.392;10.918;2024-03-08T08:39:32;12.00;99.90
42339;DHT22;27993;45.392;10.918;2024-03-08T08:42:03;11.80;99.90
42339;DHT22;27993;45.392;10.918;2024-03-08T08:44:34;11.10;99.90
42339;DHT22;27993;45.392;10.918;2024-03-08T08:47:05;11.90;99.90
42339;DHT22;27993;45.392;10.918;2024-03-08T08:49:36;11.60;99.90
42339;DHT22;27993;45.392;10.918;2024-03-08T08:52:06;12.40;99.90
42339;DHT22;27993;45.392;10.918;2024-03-08T08:54:37;12.50;99.90
42339;DHT22;27993;45.392;10.918;2024-03-08T08:57:08;12.30;99.90
42339;DHT22;27993;45.392;10.918;2024-03-08T08:59:39;12.70;99.90
42339;DHT22;27993;45.392;10.918;2024-03-08T09:02:10;12.50;99.90
42339;DHT22;27993;45.392;10.918;2024-03-08T09:04:40;12.50;99.90
42339;DHT22;27993;45.392;10.918;2024-03-08T09:07:11;11.90;99.90
42339;DHT22;27993;45.392;10.918;2024-03-08T09:09:45;12.40;99.90
42339;DHT22;27993;45.392;10.918;2024-03-08T09:12:15;12.30;99.90
42339;DHT22;27993;45.392;10.918;2024-03-08T09:14:46;12.50;99.90
42339;DHT22;27993;45.392;10.918;2024-03-08T09:17:18;11.40;99.90
42339;DHT22;27993;45.392;10.918;2024-03-08T09:19:50;10.70;99.90
42339;DHT22;27993;45.392;10.918;2024-03-08T09:22:21;10.40;99.90
42339;DHT22;27993;45.392;10.918;2024-03-08T09:24:52;10.20;99.90
42339;DHT22;27993;45.392;10.918;2024-03-08T09:27:23;10.00;99.90
42339;DHT22;27993;45.392;10.918;2024-03-08T09:29:54;10.10;99.90
42339;DHT22;27993;45.392;10.918;2024-03-08T09:32:25;10.10;99.90
42339;DHT22;27993;45.392;10.918;2024-03-08T09:34:56;10.20;99.90
42339;DHT22;27993;45.392;10.918;2024-03-08T09:37:27;10.20;99.90
42339;DHT22;27993;45.392;10.918;2024-03-08T09:39:58;10.30;99.90
42339;DHT22;27993;45.392;10.918;2024-03-08T09:42:30;10.20;99.90
42339;DHT22;27993;45.392;10.918;2024-03-08T09:45:00;10.00;99.90
42339;DHT22;27993;45.392;10.918;2024-03-08T09:47:32;10.10;99.90
42339;DHT22;27993;45.392;10.918;2024-03-08T09:50:09;9.90;99.90
42339;DHT22;27993;45.392;10.918;2024-03-08T09:52:40;10.00;99.90
42339;DHT22;27993;45.392;10.918;2024-03-08T09:55:11;9.90;99.90
42339;DHT22;27993;45.392;10.918;2024-03-08T09:57:48;10.10;99.90
42339;DHT22;27993;45.392;10.918;2024-03-08T10:00:39;10.70;99.90
42339;DHT22;27993;45.392;10.918;2024-03-08T10:03:11;10.70;99.90
42339;DHT22;27993;45.392;10.918;2024-03-08T10:05:44;10.90;99.90
42339;DHT22;27993;45.392;10.918;2024-03-08T10:08:15;10.60;99.90
42339;DHT22;27993;45.392;10.918;2024-03-08T10:10:46;10.30;99.90
42339;DHT22;27993;45.392;10.918;2024-03-08T10:13:16;10.30;99.90
42339;DHT22;27993;45.392;10.918;2024-03-08T10:15:50;10.30;99.90
42339;DHT22;27993;45.392;10.918;2024-03-08T10:18:21;10.60;99.90
42339;DHT22;27993;45.392;10.918;2024-03-08T10:21:07;10.40;99.90
42339;DHT22;27993;45.392;10.918;2024-03-08T10:23:39;10.50;99.90
42339;DHT22;27993;45.392;10.918;2024-03-08T10:26:11;10.40;99.90
42339;DHT22;27993;45.392;10.918;2024-03-08T10:28:46;10.30;99.90
42339;DHT22;27993;45.392;10.918;2024-03-08T10:31:20;10.20;99.90
42339;DHT22;27993;45.392;10.918;2024-03-08T10:33:51;10.10;99.90
42339;DHT22;27993;45.392;10.918;2024-03-08T10:36:22;10.20;99.90
42339;DHT22;27993;45.392;10.918;2024-03-08T10:38:52;10.20;99.90
42339;DHT22;27993;45.392;10.918;2024-03-08T10:41:24;10.20;99.90
42339;DHT22;27993;45.392;10.918;2024-03-08T10:49:50;10.40;99.90
42339;DHT22;27993;45.392;10.918;2024-03-08T10:52:22;10.30;99.90
42339;DHT22;27993;45.392;10.918;2024-03-08T10:54:54;10.20;99.90
42339;DHT22;27993;45.392;10.918;2024-03-08T10:57:27;10.10;99.90
42339;DHT22;27993;45.392;10.918;2024-03-08T10:59:58;10.00;99.90
42339;DHT22;27993;45.392;10.918;2024-03-08T11:02:30;9.90;99.90
42339;DHT22;27993;45.392;10.918;2024-03-08T11:05:02;9.80;99.90
42339;DHT22;27993;45.392;10.918;2024-03-08T11:07:34;9.80;99.90
42339;DHT22;27993;45.392;10.918;2024-03-08T11:10:18;10.10;99.90
42339;DHT22;27993;45.392;10.918;2024-03-08T11:12:49;10.30;99.90
42339;DHT22;27993;45.392;10.918;2024-03-08T11:15:19;10.40;99.90
42339;DHT22;27993;45.392;10.918;2024-03-08T11:17:50;11.10;99.90
42339;DHT22;27993;45.392;10.918;2024-03-08T11:20:23;12.60;99.90
42339;DHT22;27993;45.392;10.918;2024-03-08T11:22:55;12.10;99.90
42339;DHT22;27993;45.392;10.918;2024-03-08T11:25:41;11.40;99.90
42339;DHT22;27993;45.392;10.918;2024-03-08T11:28:18;11.60;99.90
42339;DHT22;27993;45.392;10.918;2024-03-08T11:33:32;10.90;99.90
42339;DHT22;27993;45.392;10.918;2024-03-08T11:36:11;10.80;99.90
42339;DHT22;27993;45.392;10.918;2024-03-08T11:38:46;10.80;99.90
42339;DHT22;27993;45.392;10.918;2024-03-08T11:41:23;10.70;99.90
42339;DHT22;27993;45.392;10.918;2024-03-08T11:44:04;10.70;99.90
42339;DHT22;27993;45.392;10.918;2024-03-08T11:46:38;11.10;99.90
42339;DHT22;27993;45.392;10.918;2024-03-08T11:49:14;11.30;99.90
42339;DHT22;27993;45.392;10.918;2024-03-08T11:51:45;11.40;99.90
42339;DHT22;27993;45.392;10.918;2024-03-08T11:54:16;11.10;99.90
42339;DHT22;27993;45.392;10.918;2024-03-08T11:56:48;10.90;99.90
42339;DHT22;27993;45.392;10.918;2024-03-08T11:59:21;10.90;99.90
42339;DHT22;27993;45.392;10.918;2024-03-08T12:02:05;10.90;99.90
42339;DHT22;27993;45.392;10.918;2024-03-08T12:04:36;10.90;99.90
42339;DHT22;27993;45.392;10.918;2024-03-08T12:07:09;11.50;99.90
42339;DHT22;27993;45.392;10.918;2024-03-08T12:09:42;11.50;99.90
42339;DHT22;27993;45.392;10.918;2024-03-08T12:12:16;11.40;99.90
42339;DHT22;27993;45.392;10.918;2024-03-08T12:14:47;11.60;99.90
42339;DHT22;27993;45.392;10.918;2024-03-08T12:17:18;11.60;99.90
42339;DHT22;27993;45.392;10.918;2024-03-08T12:19:48;11.70;99.90
42339;DHT22;27993;45.392;10.918;2024-03-08T12:22:19;11.50;99.90
42339;DHT22;27993;45.392;10.918;2024-03-08T12:25:05;11.50;99.90
42339;DHT22;27993;45.392;10.918;2024-03-08T12:27:41;11.60;99.90
42339;DHT22;27993;45.392;10.918;2024-03-08T12:30:26;11.20;99.90
42339;DHT22;27993;45.392;10.918;2024-03-08T12:32:58;11.00;99.90
42339;DHT22;27993;45.392;10.918;2024-03-08T12:35:30;11.00;99.90
42339;DHT22;27993;45.392;10.918;2024-03-08T12:38:02;11.20;99.90
42339;DHT22;27993;45.392;10.918;2024-03-08T12:40:33;10.90;99.90
42339;DHT22;27993;45.392;10.918;2024-03-08T12:43:04;11.20;99.90
42339;DHT22;27993;45.392;10.918;2024-03-08T12:45:36;11.20;99.90
42339;DHT22;27993;45.392;10.918;2024-03-08T12:48:13;11.00;99.90
42339;DHT22;27993;45.392;10.918;2024-03-08T12:50:46;11.10;99.90
42339;DHT22;27993;45.392;10.918;2024-03-08T12:53:18;11.00;99.90
42339;DHT22;27993;45.392;10.918;2024-03-08T12:55:49;10.80;99.90
42339;DHT22;27993;45.392;10.918;2024-03-08T12:58:19;10.80;99.90
42339;DHT22;27993;45.392;10.918;2024-03-08T13:00:50;10.80;99.90
42339;DHT22;27993;45.392;10.918;2024-03-08T13:03:21;10.80;99.90
42339;DHT22;27993;45.392;10.918;2024-03-08T13:05:53;11.00;99.90
42339;DHT22;27993;45.392;10.918;2024-03-08T13:08:23;10.90;99.90
42339;DHT22;27993;45.392;10.918;2024-03-08T13:10:58;10.80;99.90
42339;DHT22;27993;45.392;10.918;2024-03-08T13:13:29;10.60;99.90
42339;DHT22;27993;45.392;10.918;2024-03-08T13:16:00;10.60;99.90
42339;DHT22;27993;45.392;10.918;2024-03-08T13:18:31;10.70;99.90
42339;DHT22;27993;45.392;10.918;2024-03-08T13:21:02;10.80;99.90
42339;DHT22;27993;45.392;10.918;2024-03-08T13:23:38;11.00;99.90
42339;DHT22;27993;45.392;10.918;2024-03-08T13:26:13;11.00;99.90
42339;DHT22;27993;45.392;10.918;2024-03-08T13:28:47;11.10;99.90
42339;DHT22;27993;45.392;10.918;2024-03-08T13:31:28;11.00;99.90
42339;DHT22;27993;45.392;10.918;2024-03-08T13:33:59;11.00;99.90
42339;DHT22;27993;45.392;10.918;2024-03-08T13:36:30;10.90;99.90
42339;DHT22;27993;45.392;10.918;2024-03-08T13:39:09;10.80;99.90
42339;DHT22;27993;45.392;10.918;2024-03-08T13:41:46;10.70;99.90
42339;DHT22;27993;45.392;10.918;2024-03-08T13:44:17;10.60;99.90
42339;DHT22;27993;45.392;10.918;2024-03-08T13:46:50;10.40;99.90
42339;DHT22;27993;45.392;10.918;2024-03-08T13:49:21;10.50;99.90
42339;DHT22;27993;45.392;10.918;2024-03-08T13:51:52;10.50;99.90
42339;DHT22;27993;45.392;10.918;2024-03-08T13:54:25;10.50;99.90
42339;DHT22;27993;45.392;10.918;2024-03-08T13:56:58;10.40;99.90
42339;DHT22;27993;45.392;10.918;2024-03-08T13:59:29;10.30;99.90
42339;DHT22;27993;45.392;10.918;2024-03-08T14:02:00;10.20;99.90
42339;DHT22;27993;45.392;10.918;2024-03-08T14:04:32;10.20;99.90
42339;DHT22;27993;45.392;10.918;2024-03-08T14:07:03;10.10;99.90
42339;DHT22;27993;45.392;10.918;2024-03-08T14:09:34;10.00;99.90
42339;DHT22;27993;45.392;10.918;2024-03-08T14:12:09;10.00;99.90
42339;DHT22;27993;45.392;10.918;2024-03-08T14:14:43;10.10;99.90
42339;DHT22;27993;45.392;10.918;2024-03-08T14:17:14;10.20;99.90
42339;DHT22;27993;45.392;10.918;2024-03-08T14:19:47;10.20;99.90
42339;DHT22;27993;45.392;10.918;2024-03-08T14:22:18;10.20;99.90
42339;DHT22;27993;45.392;10.918;2024-03-08T14:24:49;10.20;99.90
42339;DHT22;27993;45.392;10.918;2024-03-08T14:27:20;10.30;99.90
42339;DHT22;27993;45.392;10.918;2024-03-08T14:29:50;10.30;99.90
42339;DHT22;27993;45.392;10.918;2024-03-08T14:32:21;10.30;99.90
42339;DHT22;27993;45.392;10.918;2024-03-08T14:34:53;10.30;99.90
42339;DHT22;27993;45.392;10.918;2024-03-08T14:37:25;10.20;99.90
42339;DHT22;27993;45.392;10.918;2024-03-08T14:39:59;10.20;99.90
42339;DHT22;27993;45.392;10.918;2024-03-08T14:42:30;10.20;99.90
42339;DHT22;27993;45.392;10.918;2024-03-08T14:45:00;10.10;99.90
42339;DHT22;27993;45.392;10.918;2024-03-08T14:47:31;10.10;99.90
42339;DHT22;27993;45.392;10.918;2024-03-08T14:50:02;10.20;99.90
42339;DHT22;27993;45.392;10.918;2024-03-08T14:52:32;10.20;99.90
42339;DHT22;27993;45.392;10.918;2024-03-08T14:55:05;10.20;99.90
42339;DHT22;27993;45.392;10.918;2024-03-08T14:57:36;10.60;99.90
42339;DHT22;27993;45.392;10.918;2024-03-08T15:00:08;10.50;99.90
42339;DHT22;27993;45.392;10.918;2024-03-08T15:02:46;10.60;99.90
42339;DHT22;27993;45.392;10.918;2024-03-08T15:05:18;10.40;99.90
42339;DHT22;27993;45.392;10.918;2024-03-08T15:07:51;10.40;99.90
42339;DHT22;27993;45.392;10.918;2024-03-08T15:10:22;10.20;99.90
42339;DHT22;27993;45.392;10.918;2024-03-08T15:12:56;10.20;99.90
42339;DHT22;27993;45.392;10.918;2024-03-08T15:15:29;10.10;99.90
42339;DHT22;27993;45.392;10.918;2024-03-08T15:18:00;10.00;99.90
42339;DHT22;27993;45.392;10.918;2024-03-08T15:20:34;9.90;99.90
42339;DHT22;27993;45.392;10.918;2024-03-08T15:23:05;9.90;99.90
42339;DHT22;27993;45.392;10.918;2024-03-08T15:25:36;9.70;99.90
42339;DHT22;27993;45.392;10.918;2024-03-08T15:28:08;9.60;99.90
42339;DHT22;27993;45.392;10.918;2024-03-08T15:30:45;9.50;99.90
42339;DHT22;27993;45.392;10.918;2024-03-08T15:33:17;9.70;99.90
42339;DHT22;27993;45.392;10.918;2024-03-08T15:35:54;9.70;99.90
42339;DHT22;27993;45.392;10.918;2024-03-08T15:38:30;9.60;99.90
42339;DHT22;27993;45.392;10.918;2024-03-08T15:41:00;9.50;99.90
42339;DHT22;27993;45.392;10.918;2024-03-08T15:43:33;9.50;99.90
42339;DHT22;27993;45.392;10.918;2024-03-08T15:46:08;9.50;99.90
42339;DHT22;27993;45.392;10.918;2024-03-08T15:48:38;9.40;99.90
42339;DHT22;27993;45.392;10.918;2024-03-08T15:51:12;9.40;99.90
42339;DHT22;27993;45.392;10.918;2024-03-08T15:53:44;9.30;99.90
42339;DHT22;27993;45.392;10.918;2024-03-08T15:56:23;9.30;99.90
42339;DHT22;27993;45.392;10.918;2024-03-08T15:58:54;9.20;99.90
42339;DHT22;27993;45.392;10.918;2024-03-08T16:01:25;9.20;99.90